sensor_id;sensor_type;location;lat;lon;timestamp;P1;durP1;ratioP1;P2;durP2;ratioP2
8887;SDS011;4480;52.370;9.748;2023-02-28T00:01:20;7.25;;;4.03;;
8887;SDS011;4480;52.370;9.748;2023-02-28T00:03:47;7.57;;;5.25;;
8887;SDS011;4480;52.370;9.748;2023-02-28T00:06:14;7.65;;;4.65;;
8887;SDS011;4480;52.370;9.748;2023-02-28T00:08:41;5.00;;;4.50;;
8887;SDS011;4480;52.370;9.748;2023-02-28T00:11:09;5.93;;;4.90;;
8887;SDS011;4480;52.370;9.748;2023-02-28T00:13:37;8.75;;;4.53;;
8887;SDS011;4480;52.370;9.748;2023-02-28T00:16:06;6.05;;;4.72;;
8887;SDS011;4480;52.370;9.748;2023-02-28T00:18:36;4.15;;;3.75;;
8887;SDS011;4480;52.370;9.748;2023-02-28T00:21:04;9.52;;;4.78;;
8887;SDS011;4480;52.370;9.748;2023-02-28T00:23:31;5.72;;;4.15;;
8887;SDS011;4480;52.370;9.748;2023-02-28T00:25:58;5.85;;;5.05;;
8887;SDS011;4480;52.370;9.748;2023-02-28T00:28:25;8.73;;;4.47;;
8887;SDS011;4480;52.370;9.748;2023-02-28T00:30:51;9.90;;;4.22;;
8887;SDS011;4480;52.370;9.748;2023-02-28T00:33:18;6.43;;;4.75;;
8887;SDS011;4480;52.370;9.748;2023-02-28T00:35:46;6.47;;;4.35;;
8887;SDS011;4480;52.370;9.748;2023-02-28T00:38:14;5.97;;;4.60;;
8887;SDS011;4480;52.370;9.748;2023-02-28T00:40:41;5.25;;;4.53;;
8887;SDS011;4480;52.370;9.748;2023-02-28T00:43:07;6.60;;;4.13;;
8887;SDS011;4480;52.370;9.748;2023-02-28T00:45:34;6.20;;;4.50;;
8887;SDS011;4480;52.370;9.748;2023-02-28T00:48:01;6.15;;;4.90;;
8887;SDS011;4480;52.370;9.748;2023-02-28T00:50:29;4.70;;;4.18;;
8887;SDS011;4480;52.370;9.748;2023-02-28T00:52:57;9.40;;;5.50;;
8887;SDS011;4480;52.370;9.748;2023-02-28T00:55:23;7.18;;;4.70;;
8887;SDS011;4480;52.370;9.748;2023-02-28T00:57:50;5.05;;;4.25;;
8887;SDS011;4480;52.370;9.748;2023-02-28T01:00:17;5.78;;;4.40;;
8887;SDS011;4480;52.370;9.748;2023-02-28T01:02:44;5.57;;;4.47;;
8887;SDS011;4480;52.370;9.748;2023-02-28T01:05:11;5.25;;;4.55;;
8887;SDS011;4480;52.370;9.748;2023-02-28T01:07:39;5.68;;;4.45;;
8887;SDS011;4480;52.370;9.748;2023-02-28T01:10:08;8.57;;;4.30;;
8887;SDS011;4480;52.370;9.748;2023-02-28T01:12:35;8.27;;;5.15;;
8887;SDS011;4480;52.370;9.748;2023-02-28T01:15:02;5.88;;;5.03;;
8887;SDS011;4480;52.370;9.748;2023-02-28T01:17:29;7.18;;;5.22;;
8887;SDS011;4480;52.370;9.748;2023-02-28T01:19:56;7.90;;;5.90;;
8887;SDS011;4480;52.370;9.748;2023-02-28T01:22:23;6.05;;;5.45;;
8887;SDS011;4480;52.370;9.748;2023-02-28T01:24:50;9.77;;;6.57;;
8887;SDS011;4480;52.370;9.748;2023-02-28T01:27:18;7.93;;;5.35;;
8887;SDS011;4480;52.370;9.748;2023-02-28T01:29:45;5.78;;;5.20;;
8887;SDS011;4480;52.370;9.748;2023-02-28T01:32:12;7.47;;;5.20;;
8887;SDS011;4480;52.370;9.748;2023-02-28T01:34:39;5.32;;;4.82;;
8887;SDS011;4480;52.370;9.748;2023-02-28T01:37:06;5.63;;;5.07;;
8887;SDS011;4480;52.370;9.748;2023-02-28T01:39:32;9.30;;;5.43;;
8887;SDS011;4480;52.370;9.748;2023-02-28T01:41:59;6.43;;;3.95;;
8887;SDS011;4480;52.370;9.748;2023-02-28T01:47:27;6.85;;;5.32;;
8887;SDS011;4480;52.370;9.748;2023-02-28T01:49:58;6.00;;;5.20;;
8887;SDS011;4480;52.370;9.748;2023-02-28T01:52:28;4.97;;;4.47;;
8887;SDS011;4480;52.370;9.748;2023-02-28T01:54:56;5.25;;;4.72;;
8887;SDS011;4480;52.370;9.748;2023-02-28T01:57:27;8.23;;;6.00;;
8887;SDS011;4480;52.370;9.748;2023-02-28T02:00:04;7.95;;;5.15;;
8887;SDS011;4480;52.370;9.748;2023-02-28T02:02:34;7.57;;;5.43;;
8887;SDS011;4480;52.370;9.748;2023-02-28T02:05:03;7.85;;;5.35;;
8887;SDS011;4480;52.370;9.748;2023-02-28T02:07:32;7.65;;;5.30;;
8887;SDS011;4480;52.370;9.748;2023-02-28T02:10:01;5.88;;;5.07;;
8887;SDS011;4480;52.370;9.748;2023-02-28T02:12:33;8.38;;;6.13;;
8887;SDS011;4480;52.370;9.748;2023-02-28T02:15:38;7.40;;;5.25;;
8887;SDS011;4480;52.370;9.748;2023-02-28T02:18:09;5.80;;;5.20;;
8887;SDS011;4480;52.370;9.748;2023-02-28T02:20:46;9.25;;;5.88;;
8887;SDS011;4480;52.370;9.748;2023-02-28T02:26:37;7.15;;;6.25;;
8887;SDS011;4480;52.370;9.748;2023-02-28T02:29:19;8.77;;;6.38;;
8887;SDS011;4480;52.370;9.748;2023-02-28T02:32:10;13.52;;;5.82;;
8887;SDS011;4480;52.370;9.748;2023-02-28T02:35:00;8.65;;;5.68;;
8887;SDS011;4480;52.370;9.748;2023-02-28T02:37:39;10.30;;;5.72;;
8887;SDS011;4480;52.370;9.748;2023-02-28T02:40:14;9.13;;;5.95;;
8887;SDS011;4480;52.370;9.748;2023-02-28T02:42:45;9.00;;;5.60;;
8887;SDS011;4480;52.370;9.748;2023-02-28T02:45:18;8.57;;;5.72;;
8887;SDS011;4480;52.370;9.748;2023-02-28T02:47:48;7.55;;;5.38;;
8887;SDS011;4480;52.370;9.748;2023-02-28T02:50:19;6.00;;;5.05;;
8887;SDS011;4480;52.370;9.748;2023-02-28T02:52:51;6.22;;;5.10;;
8887;SDS011;4480;52.370;9.748;2023-02-28T02:55:25;8.30;;;5.45;;
8887;SDS011;4480;52.370;9.748;2023-02-28T02:57:53;7.35;;;5.38;;
8887;SDS011;4480;52.370;9.748;2023-02-28T03:00:25;6.43;;;5.40;;
8887;SDS011;4480;52.370;9.748;2023-02-28T03:02:56;6.18;;;5.50;;
8887;SDS011;4480;52.370;9.748;2023-02-28T03:05:26;7.38;;;5.22;;
8887;SDS011;4480;52.370;9.748;2023-02-28T03:07:55;6.70;;;5.22;;
8887;SDS011;4480;52.370;9.748;2023-02-28T03:10:26;5.68;;;4.90;;
8887;SDS011;4480;52.370;9.748;2023-02-28T03:12:59;8.40;;;5.45;;
8887;SDS011;4480;52.370;9.748;2023-02-28T03:15:52;8.15;;;4.90;;
8887;SDS011;4480;52.370;9.748;2023-02-28T03:18:31;11.57;;;5.68;;
8887;SDS011;4480;52.370;9.748;2023-02-28T03:21:06;7.30;;;5.60;;
8887;SDS011;4480;52.370;9.748;2023-02-28T03:23:42;10.07;;;5.38;;
8887;SDS011;4480;52.370;9.748;2023-02-28T03:26:13;6.80;;;5.65;;
8887;SDS011;4480;52.370;9.748;2023-02-28T03:28:49;7.47;;;5.20;;
8887;SDS011;4480;52.370;9.748;2023-02-28T03:31:23;9.98;;;4.93;;
8887;SDS011;4480;52.370;9.748;2023-02-28T03:33:55;6.00;;;4.78;;
8887;SDS011;4480;52.370;9.748;2023-02-28T03:36:29;6.10;;;5.43;;
8887;SDS011;4480;52.370;9.748;2023-02-28T03:38:58;7.20;;;5.65;;
8887;SDS011;4480;52.370;9.748;2023-02-28T03:41:30;10.38;;;5.70;;
8887;SDS011;4480;52.370;9.748;2023-02-28T03:44:02;7.30;;;5.97;;
8887;SDS011;4480;52.370;9.748;2023-02-28T03:46:32;5.53;;;5.00;;
8887;SDS011;4480;52.370;9.748;2023-02-28T03:49:06;6.47;;;4.82;;
8887;SDS011;4480;52.370;9.748;2023-02-28T03:51:41;9.90;;;5.65;;
8887;SDS011;4480;52.370;9.748;2023-02-28T03:54:09;8.45;;;6.63;;
8887;SDS011;4480;52.370;9.748;2023-02-28T03:56:40;6.93;;;5.72;;
8887;SDS011;4480;52.370;9.748;2023-02-28T03:59:14;6.72;;;5.22;;
8887;SDS011;4480;52.370;9.748;2023-02-28T04:01:45;7.80;;;5.57;;
8887;SDS011;4480;52.370;9.748;2023-02-28T04:04:13;7.20;;;5.65;;
8887;SDS011;4480;52.370;9.748;2023-02-28T04:06:43;6.95;;;6.35;;
8887;SDS011;4480;52.370;9.748;2023-02-28T04:11:16;6.13;;;5.45;;
8887;SDS011;4480;52.370;9.748;2023-02-28T04:13:47;6.45;;;5.85;;
8887;SDS011;4480;52.370;9.748;2023-02-28T04:16:14;7.35;;;5.55;;
8887;SDS011;4480;52.370;9.748;2023-02-28T04:18:41;7.43;;;5.80;;
8887;SDS011;4480;52.370;9.748;2023-02-28T04:21:09;8.93;;;6.10;;
8887;SDS011;4480;52.370;9.748;2023-02-28T04:23:36;5.85;;;5.03;;
8887;SDS011;4480;52.370;9.748;2023-02-28T04:26:03;6.38;;;5.82;;
8887;SDS011;4480;52.370;9.748;2023-02-28T04:28:32;7.85;;;6.10;;
8887;SDS011;4480;52.370;9.748;2023-02-28T04:31:00;14.50;;;6.57;;
8887;SDS011;4480;52.370;9.748;2023-02-28T04:33:29;8.82;;;5.82;;
8887;SDS011;4480;52.370;9.748;2023-02-28T04:36:00;8.77;;;5.90;;
8887;SDS011;4480;52.370;9.748;2023-02-28T04:38:28;6.75;;;5.45;;
8887;SDS011;4480;52.370;9.748;2023-02-28T04:40:56;7.28;;;5.55;;
8887;SDS011;4480;52.370;9.748;2023-02-28T04:43:24;7.72;;;5.70;;
8887;SDS011;4480;52.370;9.748;2023-02-28T04:45:53;7.75;;;5.45;;
8887;SDS011;4480;52.370;9.748;2023-02-28T04:48:21;6.35;;;5.63;;
8887;SDS011;4480;52.370;9.748;2023-02-28T04:50:49;6.85;;;5.32;;
8887;SDS011;4480;52.370;9.748;2023-02-28T04:53:16;9.60;;;4.70;;
8887;SDS011;4480;52.370;9.748;2023-02-28T04:55:43;7.22;;;5.07;;
8887;SDS011;4480;52.370;9.748;2023-02-28T04:58:10;5.85;;;5.25;;
8887;SDS011;4480;52.370;9.748;2023-02-28T05:00:36;7.95;;;5.53;;
8887;SDS011;4480;52.370;9.748;2023-02-28T05:03:05;7.57;;;5.63;;
8887;SDS011;4480;52.370;9.748;2023-02-28T05:05:32;6.75;;;5.07;;
8887;SDS011;4480;52.370;9.748;2023-02-28T05:07:58;5.80;;;5.20;;
8887;SDS011;4480;52.370;9.748;2023-02-28T05:10:25;5.20;;;4.70;;
8887;SDS011;4480;52.370;9.748;2023-02-28T05:12:52;6.75;;;5.95;;
8887;SDS011;4480;52.370;9.748;2023-02-28T05:15:19;6.00;;;5.40;;
8887;SDS011;4480;52.370;9.748;2023-02-28T05:17:46;5.53;;;4.50;;
8887;SDS011;4480;52.370;9.748;2023-02-28T05:20:14;8.38;;;4.85;;
8887;SDS011;4480;52.370;9.748;2023-02-28T05:22:41;4.70;;;4.30;;
8887;SDS011;4480;52.370;9.748;2023-02-28T05:25:08;6.95;;;5.28;;
8887;SDS011;4480;52.370;9.748;2023-02-28T05:27:38;5.88;;;4.68;;
8887;SDS011;4480;52.370;9.748;2023-02-28T05:30:05;6.32;;;4.82;;
8887;SDS011;4480;52.370;9.748;2023-02-28T05:32:35;5.30;;;4.30;;
8887;SDS011;4480;52.370;9.748;2023-02-28T05:35:02;5.32;;;4.40;;
8887;SDS011;4480;52.370;9.748;2023-02-28T05:37:30;10.88;;;5.22;;
8887;SDS011;4480;52.370;9.748;2023-02-28T05:39:57;5.68;;;5.07;;
8887;SDS011;4480;52.370;9.748;2023-02-28T05:42:24;8.88;;;5.25;;
8887;SDS011;4480;52.370;9.748;2023-02-28T05:44:51;5.97;;;5.38;;
8887;SDS011;4480;52.370;9.748;2023-02-28T05:47:18;7.60;;;5.90;;
8887;SDS011;4480;52.370;9.748;2023-02-28T05:49:45;10.60;;;6.20;;
8887;SDS011;4480;52.370;9.748;2023-02-28T05:52:11;6.78;;;5.80;;
8887;SDS011;4480;52.370;9.748;2023-02-28T05:54:39;10.38;;;5.68;;
8887;SDS011;4480;52.370;9.748;2023-02-28T05:57:06;6.35;;;5.43;;
8887;SDS011;4480;52.370;9.748;2023-02-28T05:59:33;6.00;;;5.40;;
8887;SDS011;4480;52.370;9.748;2023-02-28T06:02:04;10.32;;;5.82;;
8887;SDS011;4480;52.370;9.748;2023-02-28T06:04:32;6.38;;;4.90;;
8887;SDS011;4480;52.370;9.748;2023-02-28T06:06:58;7.68;;;5.35;;
8887;SDS011;4480;52.370;9.748;2023-02-28T06:09:26;6.78;;;5.90;;
8887;SDS011;4480;52.370;9.748;2023-02-28T06:11:55;9.13;;;5.88;;
8887;SDS011;4480;52.370;9.748;2023-02-28T06:14:23;15.38;;;6.53;;
8887;SDS011;4480;52.370;9.748;2023-02-28T06:16:50;6.57;;;5.30;;
8887;SDS011;4480;52.370;9.748;2023-02-28T06:19:17;7.35;;;6.50;;
8887;SDS011;4480;52.370;9.748;2023-02-28T06:21:44;6.97;;;6.25;;
8887;SDS011;4480;52.370;9.748;2023-02-28T06:24:11;8.95;;;5.93;;
8887;SDS011;4480;52.370;9.748;2023-02-28T06:26:38;7.43;;;6.03;;
8887;SDS011;4480;52.370;9.748;2023-02-28T06:29:06;7.00;;;5.72;;
8887;SDS011;4480;52.370;9.748;2023-02-28T06:31:33;8.98;;;6.15;;
8887;SDS011;4480;52.370;9.748;2023-02-28T06:34:00;12.25;;;6.30;;
8887;SDS011;4480;52.370;9.748;2023-02-28T06:36:27;9.43;;;6.00;;
8887;SDS011;4480;52.370;9.748;2023-02-28T06:38:54;6.53;;;5.35;;
8887;SDS011;4480;52.370;9.748;2023-02-28T06:41:21;7.00;;;5.70;;
8887;SDS011;4480;52.370;9.748;2023-02-28T06:43:48;9.48;;;6.90;;
8887;SDS011;4480;52.370;9.748;2023-02-28T06:46:17;8.32;;;6.30;;
8887;SDS011;4480;52.370;9.748;2023-02-28T06:48:44;9.60;;;6.60;;
8887;SDS011;4480;52.370;9.748;2023-02-28T06:51:12;8.70;;;6.20;;
8887;SDS011;4480;52.370;9.748;2023-02-28T06:53:40;13.90;;;6.40;;
8887;SDS011;4480;52.370;9.748;2023-02-28T06:56:08;7.05;;;5.45;;
8887;SDS011;4480;52.370;9.748;2023-02-28T06:58:36;8.40;;;6.45;;
8887;SDS011;4480;52.370;9.748;2023-02-28T07:01:04;6.63;;;5.80;;
8887;SDS011;4480;52.370;9.748;2023-02-28T07:03:34;6.82;;;5.65;;
8887;SDS011;4480;52.370;9.748;2023-02-28T07:06:01;7.25;;;5.82;;
8887;SDS011;4480;52.370;9.748;2023-02-28T07:08:29;7.20;;;6.20;;
8887;SDS011;4480;52.370;9.748;2023-02-28T07:10:56;9.13;;;5.35;;
8887;SDS011;4480;52.370;9.748;2023-02-28T07:13:23;7.13;;;5.68;;
8887;SDS011;4480;52.370;9.748;2023-02-28T07:15:54;6.07;;;5.38;;
8887;SDS011;4480;52.370;9.748;2023-02-28T07:18:21;7.20;;;5.88;;
8887;SDS011;4480;52.370;9.748;2023-02-28T07:20:50;7.15;;;5.70;;
8887;SDS011;4480;52.370;9.748;2023-02-28T07:23:17;9.60;;;5.55;;
8887;SDS011;4480;52.370;9.748;2023-02-28T07:25:44;11.18;;;5.90;;
8887;SDS011;4480;52.370;9.748;2023-02-28T07:28:11;9.10;;;6.32;;
8887;SDS011;4480;52.370;9.748;2023-02-28T07:30:38;7.95;;;5.82;;
8887;SDS011;4480;52.370;9.748;2023-02-28T07:33:05;6.82;;;5.43;;
8887;SDS011;4480;52.370;9.748;2023-02-28T07:35:32;10.27;;;6.10;;
8887;SDS011;4480;52.370;9.748;2023-02-28T07:38:00;7.85;;;5.57;;
8887;SDS011;4480;52.370;9.748;2023-02-28T07:40:28;7.63;;;5.80;;
8887;SDS011;4480;52.370;9.748;2023-02-28T07:42:54;12.80;;;5.47;;
8887;SDS011;4480;52.370;9.748;2023-02-28T07:45:21;7.20;;;5.57;;
8887;SDS011;4480;52.370;9.748;2023-02-28T07:47:48;8.93;;;5.82;;
8887;SDS011;4480;52.370;9.748;2023-02-28T07:50:15;8.00;;;5.38;;
8887;SDS011;4480;52.370;9.748;2023-02-28T07:52:42;7.90;;;6.07;;
8887;SDS011;4480;52.370;9.748;2023-02-28T07:55:10;15.05;;;5.95;;
8887;SDS011;4480;52.370;9.748;2023-02-28T07:57:38;6.95;;;5.80;;
8887;SDS011;4480;52.370;9.748;2023-02-28T08:00:07;9.00;;;5.88;;
8887;SDS011;4480;52.370;9.748;2023-02-28T08:02:36;7.40;;;5.65;;
8887;SDS011;4480;52.370;9.748;2023-02-28T08:05:03;12.10;;;6.50;;
8887;SDS011;4480;52.370;9.748;2023-02-28T08:07:30;9.40;;;6.15;;
8887;SDS011;4480;52.370;9.748;2023-02-28T08:09:57;6.65;;;4.95;;
8887;SDS011;4480;52.370;9.748;2023-02-28T08:12:25;8.07;;;5.93;;
8887;SDS011;4480;52.370;9.748;2023-02-28T08:14:52;5.82;;;5.13;;
8887;SDS011;4480;52.370;9.748;2023-02-28T08:17:19;6.97;;;4.95;;
8887;SDS011;4480;52.370;9.748;2023-02-28T08:19:46;6.45;;;5.75;;
8887;SDS011;4480;52.370;9.748;2023-02-28T08:22:12;6.13;;;5.53;;
8887;SDS011;4480;52.370;9.748;2023-02-28T08:24:40;6.68;;;5.13;;
8887;SDS011;4480;52.370;9.748;2023-02-28T08:27:08;6.10;;;5.20;;
8887;SDS011;4480;52.370;9.748;2023-02-28T08:29:37;6.18;;;5.18;;
8887;SDS011;4480;52.370;9.748;2023-02-28T08:32:04;8.77;;;4.78;;
8887;SDS011;4480;52.370;9.748;2023-02-28T08:34:31;5.60;;;4.55;;
8887;SDS011;4480;52.370;9.748;2023-02-28T08:36:58;7.07;;;4.15;;
8887;SDS011;4480;52.370;9.748;2023-02-28T08:39:25;5.13;;;4.63;;
8887;SDS011;4480;52.370;9.748;2023-02-28T08:41:52;7.38;;;4.40;;
8887;SDS011;4480;52.370;9.748;2023-02-28T08:44:19;5.95;;;4.47;;
8887;SDS011;4480;52.370;9.748;2023-02-28T08:46:47;5.43;;;4.00;;
8887;SDS011;4480;52.370;9.748;2023-02-28T08:49:14;4.68;;;3.58;;
8887;SDS011;4480;52.370;9.748;2023-02-28T08:51:41;8.50;;;4.65;;
8887;SDS011;4480;52.370;9.748;2023-02-28T08:54:08;6.00;;;3.63;;
8887;SDS011;4480;52.370;9.748;2023-02-28T08:56:37;9.40;;;4.80;;
8887;SDS011;4480;52.370;9.748;2023-02-28T08:59:04;5.13;;;3.85;;
8887;SDS011;4480;52.370;9.748;2023-02-28T09:01:31;5.75;;;3.90;;
8887;SDS011;4480;52.370;9.748;2023-02-28T09:03:59;3.15;;;2.90;;
8887;SDS011;4480;52.370;9.748;2023-02-28T09:06:27;7.53;;;3.90;;
8887;SDS011;4480;52.370;9.748;2023-02-28T09:08:56;3.10;;;2.75;;
8887;SDS011;4480;52.370;9.748;2023-02-28T09:11:24;7.68;;;2.85;;
8887;SDS011;4480;52.370;9.748;2023-02-28T09:13:51;4.55;;;3.40;;
8887;SDS011;4480;52.370;9.748;2023-02-28T09:16:20;3.22;;;2.92;;
8887;SDS011;4480;52.370;9.748;2023-02-28T09:18:47;4.85;;;3.40;;
8887;SDS011;4480;52.370;9.748;2023-02-28T09:21:16;4.90;;;3.10;;
8887;SDS011;4480;52.370;9.748;2023-02-28T09:23:45;5.55;;;3.22;;
8887;SDS011;4480;52.370;9.748;2023-02-28T09:26:13;5.40;;;3.35;;
8887;SDS011;4480;52.370;9.748;2023-02-28T09:28:41;5.10;;;3.30;;
8887;SDS011;4480;52.370;9.748;2023-02-28T09:31:10;4.22;;;2.97;;
8887;SDS011;4480;52.370;9.748;2023-02-28T09:33:40;6.75;;;2.88;;
8887;SDS011;4480;52.370;9.748;2023-02-28T09:36:07;3.40;;;2.67;;
8887;SDS011;4480;52.370;9.748;2023-02-28T09:38:35;2.78;;;2.47;;
8887;SDS011;4480;52.370;9.748;2023-02-28T09:41:03;6.70;;;2.95;;
8887;SDS011;4480;52.370;9.748;2023-02-28T09:43:37;3.28;;;2.75;;
8887;SDS011;4480;52.370;9.748;2023-02-28T09:46:08;4.43;;;3.05;;
8887;SDS011;4480;52.370;9.748;2023-02-28T09:48:47;6.28;;;3.72;;
8887;SDS011;4480;52.370;9.748;2023-02-28T09:51:22;4.57;;;3.22;;
8887;SDS011;4480;52.370;9.748;2023-02-28T09:53:57;4.43;;;2.40;;
8887;SDS011;4480;52.370;9.748;2023-02-28T09:56:25;4.65;;;2.70;;
8887;SDS011;4480;52.370;9.748;2023-02-28T09:58:57;3.30;;;2.83;;
8887;SDS011;4480;52.370;9.748;2023-02-28T10:01:30;3.53;;;2.22;;
8887;SDS011;4480;52.370;9.748;2023-02-28T10:04:03;4.70;;;2.38;;
8887;SDS011;4480;52.370;9.748;2023-02-28T10:06:38;3.20;;;2.40;;
8887;SDS011;4480;52.370;9.748;2023-02-28T10:09:13;4.18;;;2.13;;
8887;SDS011;4480;52.370;9.748;2023-02-28T10:11:43;6.57;;;2.28;;
8887;SDS011;4480;52.370;9.748;2023-02-28T10:14:12;2.53;;;1.98;;
8887;SDS011;4480;52.370;9.748;2023-02-28T10:16:41;3.03;;;2.72;;
8887;SDS011;4480;52.370;9.748;2023-02-28T10:19:17;3.13;;;2.15;;
8887;SDS011;4480;52.370;9.748;2023-02-28T10:21:49;3.25;;;2.50;;
8887;SDS011;4480;52.370;9.748;2023-02-28T10:24:26;3.65;;;2.88;;
8887;SDS011;4480;52.370;9.748;2023-02-28T10:26:58;2.78;;;2.08;;
8887;SDS011;4480;52.370;9.748;2023-02-28T10:29:27;2.85;;;1.95;;
8887;SDS011;4480;52.370;9.748;2023-02-28T10:31:55;3.90;;;2.53;;
8887;SDS011;4480;52.370;9.748;2023-02-28T10:34:22;2.28;;;1.80;;
8887;SDS011;4480;52.370;9.748;2023-02-28T10:36:51;2.55;;;1.63;;
8887;SDS011;4480;52.370;9.748;2023-02-28T10:39:36;2.10;;;1.80;;
8887;SDS011;4480;52.370;9.748;2023-02-28T10:42:05;2.78;;;1.83;;
8887;SDS011;4480;52.370;9.748;2023-02-28T10:44:46;2.58;;;1.80;;
8887;SDS011;4480;52.370;9.748;2023-02-28T10:47:14;4.38;;;1.98;;
8887;SDS011;4480;52.370;9.748;2023-02-28T10:49:46;1.92;;;1.52;;
8887;SDS011;4480;52.370;9.748;2023-02-28T10:52:14;1.50;;;1.40;;
8887;SDS011;4480;52.370;9.748;2023-02-28T10:55:19;1.83;;;1.67;;
8887;SDS011;4480;52.370;9.748;2023-02-28T10:57:48;2.60;;;2.40;;
8887;SDS011;4480;52.370;9.748;2023-02-28T11:00:16;6.75;;;1.70;;
8887;SDS011;4480;52.370;9.748;2023-02-28T11:02:46;5.45;;;1.50;;
8887;SDS011;4480;52.370;9.748;2023-02-28T11:05:24;5.57;;;2.00;;
8887;SDS011;4480;52.370;9.748;2023-02-28T11:07:53;4.50;;;1.33;;
8887;SDS011;4480;52.370;9.748;2023-02-28T11:10:24;2.95;;;1.75;;
8887;SDS011;4480;52.370;9.748;2023-02-28T11:12:54;1.40;;;1.30;;
8887;SDS011;4480;52.370;9.748;2023-02-28T11:15:23;3.75;;;1.90;;
8887;SDS011;4480;52.370;9.748;2023-02-28T11:17:55;1.95;;;1.70;;
8887;SDS011;4480;52.370;9.748;2023-02-28T11:20:25;1.95;;;1.42;;
8887;SDS011;4480;52.370;9.748;2023-02-28T11:22:54;2.90;;;1.23;;
8887;SDS011;4480;52.370;9.748;2023-02-28T11:25:24;1.50;;;1.30;;
8887;SDS011;4480;52.370;9.748;2023-02-28T11:27:53;1.40;;;1.30;;
8887;SDS011;4480;52.370;9.748;2023-02-28T11:30:25;2.97;;;1.33;;
8887;SDS011;4480;52.370;9.748;2023-02-28T11:32:54;1.70;;;1.33;;
8887;SDS011;4480;52.370;9.748;2023-02-28T11:35:23;2.92;;;1.67;;
8887;SDS011;4480;52.370;9.748;2023-02-28T11:37:53;1.88;;;1.45;;
8887;SDS011;4480;52.370;9.748;2023-02-28T11:40:22;3.00;;;1.80;;
8887;SDS011;4480;52.370;9.748;2023-02-28T11:42:58;1.50;;;1.30;;
8887;SDS011;4480;52.370;9.748;2023-02-28T11:45:36;2.90;;;1.70;;
8887;SDS011;4480;52.370;9.748;2023-02-28T11:48:18;4.78;;;2.25;;
8887;SDS011;4480;52.370;9.748;2023-02-28T11:50:52;4.53;;;1.50;;
8887;SDS011;4480;52.370;9.748;2023-02-28T11:53:33;5.45;;;2.30;;
8887;SDS011;4480;52.370;9.748;2023-02-28T11:56:14;2.03;;;1.60;;
8887;SDS011;4480;52.370;9.748;2023-02-28T11:58:52;2.83;;;1.83;;
8887;SDS011;4480;52.370;9.748;2023-02-28T12:01:31;4.78;;;2.80;;
8887;SDS011;4480;52.370;9.748;2023-02-28T12:04:12;5.43;;;2.50;;
8887;SDS011;4480;52.370;9.748;2023-02-28T12:06:50;2.50;;;2.03;;
8887;SDS011;4480;52.370;9.748;2023-02-28T12:09:29;3.78;;;2.40;;
8887;SDS011;4480;52.370;9.748;2023-02-28T12:12:06;9.60;;;3.85;;
8887;SDS011;4480;52.370;9.748;2023-02-28T12:17:55;4.13;;;1.90;;
8887;SDS011;4480;52.370;9.748;2023-02-28T12:20:32;2.42;;;2.22;;
8887;SDS011;4480;52.370;9.748;2023-02-28T12:23:19;2.40;;;2.00;;
8887;SDS011;4480;52.370;9.748;2023-02-28T12:26:02;2.10;;;1.90;;
8887;SDS011;4480;52.370;9.748;2023-02-28T12:28:38;2.83;;;2.00;;
8887;SDS011;4480;52.370;9.748;2023-02-28T12:31:09;2.33;;;2.13;;
8887;SDS011;4480;52.370;9.748;2023-02-28T12:33:42;3.50;;;1.90;;
8887;SDS011;4480;52.370;9.748;2023-02-28T12:36:13;2.67;;;2.45;;
8887;SDS011;4480;52.370;9.748;2023-02-28T12:38:44;4.35;;;2.25;;
8887;SDS011;4480;52.370;9.748;2023-02-28T12:41:14;3.88;;;2.33;;
8887;SDS011;4480;52.370;9.748;2023-02-28T12:43:45;2.33;;;2.15;;
8887;SDS011;4480;52.370;9.748;2023-02-28T12:46:16;2.15;;;1.95;;
8887;SDS011;4480;52.370;9.748;2023-02-28T12:48:48;2.78;;;2.55;;
8887;SDS011;4480;52.370;9.748;2023-02-28T12:51:20;4.10;;;2.25;;
8887;SDS011;4480;52.370;9.748;2023-02-28T12:53:50;4.00;;;2.35;;
8887;SDS011;4480;52.370;9.748;2023-02-28T12:56:27;5.10;;;3.03;;
8887;SDS011;4480;52.370;9.748;2023-02-28T12:59:03;4.53;;;2.25;;
8887;SDS011;4480;52.370;9.748;2023-02-28T13:01:41;3.90;;;2.40;;
8887;SDS011;4480;52.370;9.748;2023-02-28T13:04:27;3.67;;;2.50;;
8887;SDS011;4480;52.370;9.748;2023-02-28T13:07:29;5.05;;;2.90;;
8887;SDS011;4480;52.370;9.748;2023-02-28T13:10:11;6.68;;;2.50;;
8887;SDS011;4480;52.370;9.748;2023-02-28T13:12:46;4.35;;;3.00;;
8887;SDS011;4480;52.370;9.748;2023-02-28T13:15:18;3.80;;;2.97;;
8887;SDS011;4480;52.370;9.748;2023-02-28T13:17:49;6.13;;;2.72;;
8887;SDS011;4480;52.370;9.748;2023-02-28T13:20:18;6.07;;;2.60;;
8887;SDS011;4480;52.370;9.748;2023-02-28T13:22:48;4.88;;;2.78;;
8887;SDS011;4480;52.370;9.748;2023-02-28T13:31:34;4.40;;;2.58;;
8887;SDS011;4480;52.370;9.748;2023-02-28T13:35:11;2.90;;;2.60;;
8887;SDS011;4480;52.370;9.748;2023-02-28T13:44:00;4.93;;;2.50;;
8887;SDS011;4480;52.370;9.748;2023-02-28T13:46:29;3.40;;;2.80;;
8887;SDS011;4480;52.370;9.748;2023-02-28T13:48:57;6.00;;;2.97;;
8887;SDS011;4480;52.370;9.748;2023-02-28T13:51:50;3.03;;;2.67;;
8887;SDS011;4480;52.370;9.748;2023-02-28T13:54:22;4.80;;;3.05;;
8887;SDS011;4480;52.370;9.748;2023-02-28T13:57:00;4.15;;;3.20;;
8887;SDS011;4480;52.370;9.748;2023-02-28T13:59:37;4.90;;;2.72;;
8887;SDS011;4480;52.370;9.748;2023-02-28T14:02:22;3.30;;;2.45;;
8887;SDS011;4480;52.370;9.748;2023-02-28T14:05:00;4.68;;;2.80;;
8887;SDS011;4480;52.370;9.748;2023-02-28T14:07:31;3.58;;;3.03;;
8887;SDS011;4480;52.370;9.748;2023-02-28T14:10:06;3.17;;;2.88;;
8887;SDS011;4480;52.370;9.748;2023-02-28T14:13:00;4.20;;;2.67;;
8887;SDS011;4480;52.370;9.748;2023-02-28T14:18:25;4.78;;;3.38;;
8887;SDS011;4480;52.370;9.748;2023-02-28T14:20:57;3.42;;;2.90;;
8887;SDS011;4480;52.370;9.748;2023-02-28T14:26:31;2.70;;;2.28;;
8887;SDS011;4480;52.370;9.748;2023-02-28T14:29:30;4.03;;;2.22;;
8887;SDS011;4480;52.370;9.748;2023-02-28T14:32:11;3.53;;;2.63;;
8887;SDS011;4480;52.370;9.748;2023-02-28T14:34:48;5.55;;;2.95;;
8887;SDS011;4480;52.370;9.748;2023-02-28T14:37:19;3.47;;;2.30;;
8887;SDS011;4480;52.370;9.748;2023-02-28T14:39:52;4.22;;;2.10;;
8887;SDS011;4480;52.370;9.748;2023-02-28T14:42:29;3.63;;;2.60;;
8887;SDS011;4480;52.370;9.748;2023-02-28T14:44:58;2.67;;;2.47;;
8887;SDS011;4480;52.370;9.748;2023-02-28T14:47:26;3.30;;;2.65;;
8887;SDS011;4480;52.370;9.748;2023-02-28T14:49:56;2.83;;;2.33;;
8887;SDS011;4480;52.370;9.748;2023-02-28T14:52:24;3.00;;;2.15;;
8887;SDS011;4480;52.370;9.748;2023-02-28T14:54:54;3.17;;;2.90;;
8887;SDS011;4480;52.370;9.748;2023-02-28T14:57:24;4.80;;;2.58;;
8887;SDS011;4480;52.370;9.748;2023-02-28T14:59:58;4.20;;;2.80;;
8887;SDS011;4480;52.370;9.748;2023-02-28T15:02:35;4.25;;;2.67;;
8887;SDS011;4480;52.370;9.748;2023-02-28T15:05:10;3.38;;;2.75;;
8887;SDS011;4480;52.370;9.748;2023-02-28T15:07:48;3.60;;;2.35;;
8887;SDS011;4480;52.370;9.748;2023-02-28T15:10:26;2.70;;;2.40;;
8887;SDS011;4480;52.370;9.748;2023-02-28T15:12:54;3.45;;;2.40;;
8887;SDS011;4480;52.370;9.748;2023-02-28T15:15:24;3.38;;;2.25;;
8887;SDS011;4480;52.370;9.748;2023-02-28T15:17:58;5.82;;;3.40;;
8887;SDS011;4480;52.370;9.748;2023-02-28T15:20:28;3.90;;;2.17;;
8887;SDS011;4480;52.370;9.748;2023-02-28T15:22:55;2.78;;;2.58;;
8887;SDS011;4480;52.370;9.748;2023-02-28T15:25:22;3.75;;;2.60;;
8887;SDS011;4480;52.370;9.748;2023-02-28T15:27:50;4.25;;;2.80;;
8887;SDS011;4480;52.370;9.748;2023-02-28T15:30:21;4.70;;;3.30;;
8887;SDS011;4480;52.370;9.748;2023-02-28T15:33:04;3.58;;;2.88;;
8887;SDS011;4480;52.370;9.748;2023-02-28T15:35:36;4.38;;;2.60;;
8887;SDS011;4480;52.370;9.748;2023-02-28T15:38:11;5.50;;;2.80;;
8887;SDS011;4480;52.370;9.748;2023-02-28T15:40:42;2.45;;;2.25;;
8887;SDS011;4480;52.370;9.748;2023-02-28T15:43:14;4.43;;;2.90;;
8887;SDS011;4480;52.370;9.748;2023-02-28T15:45:45;3.45;;;2.58;;
8887;SDS011;4480;52.370;9.748;2023-02-28T15:48:18;4.15;;;2.65;;
8887;SDS011;4480;52.370;9.748;2023-02-28T15:50:49;3.50;;;3.20;;
8887;SDS011;4480;52.370;9.748;2023-02-28T15:53:18;3.33;;;2.85;;
8887;SDS011;4480;52.370;9.748;2023-02-28T15:55:52;3.75;;;2.85;;
8887;SDS011;4480;52.370;9.748;2023-02-28T15:58:21;3.72;;;3.40;;
8887;SDS011;4480;52.370;9.748;2023-02-28T16:01:01;3.05;;;2.75;;
8887;SDS011;4480;52.370;9.748;2023-02-28T16:03:38;6.22;;;3.72;;
8887;SDS011;4480;52.370;9.748;2023-02-28T16:06:08;3.90;;;3.17;;
8887;SDS011;4480;52.370;9.748;2023-02-28T16:08:53;5.90;;;3.30;;